Time;durP1;ratioP1;P1;durP2;ratioP2;P2;SDS_P1;SDS_P2;PMS_P1;PMS_P2;Temp;Humidity;BMP_temperature;BMP_pressure;BME280_temperature;BME280_humidity;BME280_pressure;Samples;Min_cycle;Max_cycle;Signal;HPM_P1;HPM_P2
2023/11/29 00:01:30;;;;;;;6.28;1.23;;;;;;;-146.27;79.07;33934.28;5101817;28;20024;-69
2023/11/29 00:03:56;;;;;;;9.68;1.33;;;;;;;-146.27;76.80;33970.00;5096188;28;20031;-68
2023/11/29 00:06:21;;;;;;;5.93;1.10;;;;;;;-146.27;76.49;33882.69;5098637;28;20031;-69
2023/11/29 00:08:47;;;;;;;6.40;0.82;;;;;;;-146.27;74.65;33926.34;5098323;28;20737;-67
2023/11/29 00:11:12;;;;;;;1.38;0.80;;;;;;;-146.27;73.96;33894.59;5088440;28;20036;-69
2023/11/29 00:13:37;;;;;;;6.90;1.00;;;;;;;-146.27;73.41;33868.78;5096899;28;20030;-68
2023/11/29 00:16:03;;;;;;;10.15;1.13;;;;;;;-146.27;72.79;33868.78;5097216;28;20032;-69
2023/11/29 00:18:28;;;;;;;5.05;1.20;;;;;;;-146.27;72.29;33850.94;5100707;28;20043;-67
2023/11/29 00:20:54;;;;;;;2.20;0.70;;;;;;;-146.27;71.28;33843.00;5102227;28;20032;-69
2023/11/29 00:23:19;;;;;;;4.50;1.17;;;;;;;-146.27;71.19;33874.75;5094835;28;20062;-68
2023/11/29 00:25:44;;;;;;;10.85;1.08;;;;;;;-146.27;70.62;33878.72;5095424;28;20161;-70
2023/11/29 00:28:10;;;;;;;3.85;1.02;;;;;;;-146.27;70.31;33803.31;5107638;28;20478;-69
2023/11/29 00:30:35;;;;;;;4.13;1.08;;;;;;;-146.27;68.33;33864.81;5104893;28;20485;-68
2023/11/29 00:33:01;;;;;;;11.60;1.33;;;;;;;-146.27;67.64;33783.47;5095607;28;20023;-68
2023/11/29 00:35:26;;;;;;;3.13;0.75;;;;;;;-146.27;67.12;33866.81;5091063;28;20015;-69
2023/11/29 00:37:52;;;;;;;5.45;0.98;;;;;;;-146.27;66.90;33817.19;5095273;28;20024;-69
2023/11/29 00:40:17;;;;;;;5.63;0.80;;;;;;;-146.27;66.67;33823.16;5093105;28;20028;-70
2023/11/29 00:42:43;;;;;;;4.28;0.70;;;;;;;-146.27;66.27;33803.31;5090866;28;20028;-69
2023/11/29 00:45:09;;;;;;;3.55;0.85;;;;;;;-146.27;65.51;33791.41;5107628;28;20111;-70
2023/11/29 00:47:34;;;;;;;3.25;0.70;;;;;;;-146.27;65.09;33823.16;5097372;28;20028;-69
2023/11/29 00:50:00;;;;;;;4.32;0.63;;;;;;;-146.27;63.31;33831.09;5095835;28;20384;-69
2023/11/29 00:52:25;;;;;;;5.97;1.00;;;;;;;-146.27;64.40;33850.94;5100290;28;20032;-70
2023/11/29 00:54:51;;;;;;;4.55;0.95;;;;;;;-146.27;64.13;33815.22;5093510;28;20400;-69
2023/11/29 00:57:16;;;;;;;4.55;0.80;;;;;;;-146.27;63.81;33765.59;5107113;28;20027;-69
2023/11/29 00:59:41;;;;;;;4.82;1.10;;;;;;;-146.27;64.55;33787.44;5101014;28;20031;-69
2023/11/29 01:02:07;;;;;;;5.28;1.25;;;;;;;-146.27;65.03;33807.28;5091748;28;20024;-69
2023/11/29 01:04:32;;;;;;;5.82;0.82;;;;;;;-146.27;65.26;33769.56;5096480;28;20559;-70
2023/11/29 01:06:57;;;;;;;1.45;0.70;;;;;;;-146.27;63.49;33789.41;5101091;28;20103;-69
2023/11/29 01:09:23;;;;;;;2.28;0.80;;;;;;;-146.27;59.56;33827.13;5107583;28;20530;-68
2023/11/29 01:11:48;;;;;;;1.60;0.50;;;;;;;-146.27;57.08;33862.84;5099803;28;20126;-69
2023/11/29 01:14:13;;;;;;;5.72;1.10;;;;;;;-146.27;58.50;33823.16;5091040;28;20172;-68
2023/11/29 01:16:39;;;;;;;4.55;0.90;;;;;;;-146.27;59.31;33811.25;5091708;28;20107;-68
2023/11/29 01:19:04;;;;;;;3.50;0.70;;;;;;;-146.27;59.67;33795.38;5058389;28;1155916;-67
2023/11/29 01:21:30;;;;;;;1.15;0.70;;;;;;;-146.27;60.73;33751.72;5096496;28;20032;-69
2023/11/29 01:23:55;;;;;;;3.78;1.20;;;;;;;-146.27;61.43;33846.97;5102287;28;20035;-68
2023/11/29 01:26:20;;;;;;;2.08;0.90;;;;;;;-146.27;62.10;33854.91;5084245;28;20115;-68
2023/11/29 01:28:46;;;;;;;4.68;0.80;;;;;;;-146.27;62.04;33827.13;5098046;28;20379;-70
2023/11/29 01:31:12;;;;;;;7.25;1.30;;;;;;;-146.27;61.87;33775.53;5096734;28;20542;-70
2023/11/29 01:33:39;;;;;;;6.63;1.02;;;;;;;-146.27;62.58;33795.38;5096309;28;20020;-69
2023/11/29 01:36:11;;;;;;;4.55;1.55;;;;;;;-146.27;62.48;33846.97;5094745;28;20039;-70
2023/11/29 01:38:37;;;;;;;3.15;1.10;;;;;;;-146.27;62.47;33829.09;5092418;28;20020;-69
2023/11/29 01:41:03;;;;;;;5.22;1.40;;;;;;;-146.27;62.49;33781.47;5098493;28;20043;-69
2023/11/29 01:43:29;;;;;;;8.52;1.50;;;;;;;-146.27;62.43;33813.22;5096627;28;20114;-69
2023/11/29 01:45:55;;;;;;;4.47;1.27;;;;;;;-146.27;61.80;33844.97;5103928;28;20042;-71
2023/11/29 01:48:22;;;;;;;7.68;1.60;;;;;;;-146.27;60.42;33819.19;5107181;28;20384;-69
2023/11/29 01:50:49;;;;;;;2.72;1.00;;;;;;;-146.27;58.19;33856.88;5092126;28;20353;-69
2023/11/29 01:53:17;;;;;;;3.65;0.80;;;;;;;-146.27;57.72;33827.13;5095737;28;20455;-69
2023/11/29 01:55:48;;;;;;;9.93;1.42;;;;;;;-146.27;57.57;33811.25;5101235;28;20024;-69
2023/11/29 01:58:13;;;;;;;4.85;1.15;;;;;;;-146.27;56.68;33817.19;5106669;27;20372;-68
2023/11/29 02:00:39;;;;;;;4.75;0.93;;;;;;;-146.27;56.71;33805.28;5093616;28;20038;-69
2023/11/29 02:03:04;;;;;;;3.25;0.98;;;;;;;-146.27;57.20;33823.16;5101287;28;20448;-69
2023/11/29 02:05:30;;;;;;;9.55;1.60;;;;;;;-146.27;56.54;33870.78;5098224;28;20020;-69
2023/11/29 02:07:56;;;;;;;7.75;1.13;;;;;;;-146.27;56.44;33803.31;5101403;28;20031;-68
2023/11/29 02:10:21;;;;;;;7.13;0.90;;;;;;;-146.27;57.13;33787.44;5101775;28;20035;-69
2023/11/29 02:12:47;;;;;;;3.58;0.88;;;;;;;-146.27;58.99;33716.00;5093511;28;20396;-70
2023/11/29 02:15:12;;;;;;;9.10;1.38;;;;;;;-146.27;65.67;33775.53;5095942;28;20019;-69
2023/11/29 02:17:38;;;;;;;9.23;1.17;;;;;;;-146.27;67.63;33757.66;5105825;28;20016;-70
2023/11/29 02:20:04;;;;;;;5.95;1.00;;;;;;;-146.27;70.60;33882.69;5103544;28;20423;-69
2023/11/29 02:22:31;;;;;;;3.97;1.20;;;;;;;-146.27;72.97;33874.75;5104172;28;20043;-69
2023/11/29 02:24:57;;;;;;;4.80;0.80;;;;;;;-146.27;74.61;33894.59;5101916;28;20367;-68
2023/11/29 02:27:23;;;;;;;6.70;1.00;;;;;;;-146.27;76.48;33970.00;5104765;28;20024;-69
2023/11/29 02:29:49;;;;;;;9.90;1.40;;;;;;;-146.27;80.02;34023.59;5103745;28;20440;-70
2023/11/29 02:32:14;;;;;;;2.70;0.60;;;;;;;-146.27;80.36;34023.59;5096426;28;20115;-69
2023/11/29 02:34:39;;;;;;;2.90;0.60;;;;;;;-146.27;80.76;34077.16;5099392;28;20453;-68
2023/11/29 02:37:05;;;;;;;2.47;0.70;;;;;;;-146.27;81.04;34061.28;5093510;28;20028;-70
2023/11/29 02:39:30;;;;;;;8.15;0.95;;;;;;;-146.27;81.73;34140.66;5094803;28;20028;-70
2023/11/29 02:41:56;;;;;;;2.05;0.68;;;;;;;-146.27;81.76;34089.06;5090396;28;20036;-68
2023/11/29 02:44:22;;;;;;;4.57;0.63;;;;;;;-146.27;81.53;34120.81;5097195;28;20078;-68
2023/11/29 02:46:47;;;;;;;7.50;1.10;;;;;;;-146.27;81.79;34168.44;5090088;28;20020;-69
2023/11/29 02:49:12;;;;;;;5.10;0.65;;;;;;;-146.27;83.00;34136.69;5100377;28;20019;-70
2023/11/29 02:51:38;;;;;;;3.22;0.68;;;;;;;-146.27;83.36;34132.72;5090195;28;20041;-68
2023/11/29 02:54:03;;;;;;;1.67;0.77;;;;;;;-146.27;82.75;34081.13;5093792;28;20016;-68
2023/11/29 02:56:29;;;;;;;3.78;0.90;;;;;;;-146.27;83.36;34091.06;5100288;28;20062;-68
2023/11/29 02:58:54;;;;;;;5.03;0.80;;;;;;;-146.27;82.50;34059.31;5095223;28;20016;-69
2023/11/29 03:01:19;;;;;;;2.83;0.80;;;;;;;-146.27;82.71;34029.53;5091514;28;20027;-69
2023/11/29 03:03:45;;;;;;;5.28;0.90;;;;;;;-146.27;83.39;34083.13;5081265;28;20023;-68
2023/11/29 03:06:10;;;;;;;9.07;1.95;;;;;;;-146.27;82.63;34045.41;5094117;28;20104;-69
2023/11/29 03:08:36;;;;;;;6.15;1.40;;;;;;;-146.27;82.18;34005.72;5098472;28;20111;-69
2023/11/29 03:11:02;;;;;;;11.07;1.55;;;;;;;-146.27;82.06;34009.69;5103510;28;20508;-70
2023/11/29 03:13:28;;;;;;;6.10;1.00;;;;;;;-146.27;81.31;34045.41;5095894;28;20035;-68
2023/11/29 03:15:53;;;;;;;9.85;1.23;;;;;;;-146.27;80.19;33977.94;5090494;28;20465;-69
2023/11/29 03:18:19;;;;;;;10.63;1.50;;;;;;;-146.27;79.46;33991.81;5090742;28;20066;-69
2023/11/29 03:20:44;;;;;;;9.93;1.25;;;;;;;-146.27;78.76;33964.03;5096925;28;20027;-68
2023/11/29 03:23:10;;;;;;;2.88;1.08;;;;;;;-146.27;78.38;33926.34;5082137;28;20039;-68
2023/11/29 03:25:36;;;;;;;7.15;0.93;;;;;;;-146.27;78.49;33970.00;5077976;28;20031;-69
2023/11/29 03:28:01;;;;;;;4.45;0.93;;;;;;;-146.27;77.61;33928.31;5091583;28;20435;-70
2023/11/29 03:30:27;;;;;;;2.38;0.85;;;;;;;-146.27;78.18;33934.28;5090043;28;20118;-69
2023/11/29 03:32:52;;;;;;;5.05;1.08;;;;;;;-146.27;79.31;33979.91;5096919;28;20081;-69
2023/11/29 03:35:18;;;;;;;7.00;1.25;;;;;;;-146.27;80.82;34097.00;5088869;28;20032;-70
2023/11/29 03:37:43;;;;;;;2.97;0.45;;;;;;;-146.27;79.72;34045.41;5074886;28;20110;-69
2023/11/29 03:40:09;;;;;;;3.55;0.90;;;;;;;-146.27;79.31;34083.13;5105332;28;20455;-69
2023/11/29 03:42:34;;;;;;;6.18;0.73;;;;;;;-146.27;80.37;34136.69;5080991;28;20057;-69
2023/11/29 03:45:01;;;;;;;6.75;0.73;;;;;;;-146.27;79.44;34073.19;5101994;28;20031;-69
2023/11/29 03:47:27;;;;;;;6.25;0.82;;;;;;;-146.27;80.18;34160.50;5101615;28;20028;-69
2023/11/29 03:49:52;;;;;;;6.47;1.05;;;;;;;-146.27;80.92;34073.19;5090271;28;20093;-71
2023/11/29 03:52:19;;;;;;;7.35;0.82;;;;;;;-146.27;81.37;34138.69;5090308;28;20093;-70
2023/11/29 03:54:44;;;;;;;10.35;0.95;;;;;;;-146.27;80.89;34077.16;5100506;28;20818;-69
2023/11/29 03:57:10;;;;;;;11.65;0.90;;;;;;;-146.27;80.45;34085.09;5102762;28;20020;-69
2023/11/29 03:59:35;;;;;;;3.20;0.80;;;;;;;-146.27;80.78;34093.03;5096421;28;20039;-69
2023/11/29 04:02:01;;;;;;;3.85;0.57;;;;;;;-146.27;81.13;34029.53;5093298;28;20464;-69
2023/11/29 04:04:26;;;;;;;5.82;0.68;;;;;;;-146.27;81.48;34085.09;5093271;28;20059;-69
2023/11/29 04:06:51;;;;;;;2.80;0.60;;;;;;;-146.27;81.05;34045.41;5087592;28;20055;-68
2023/11/29 04:09:17;;;;;;;14.65;1.35;;;;;;;-146.27;81.84;34093.03;5089548;28;20040;-70
2023/11/29 04:11:45;;;;;;;5.93;1.08;;;;;;;-146.27;81.99;34083.13;5093057;28;20031;-69
2023/11/29 04:14:11;;;;;;;6.68;0.82;;;;;;;-146.27;80.67;34013.66;5107512;28;20019;-68
2023/11/29 04:16:36;;;;;;;5.22;0.80;;;;;;;-146.27;80.06;34033.50;5098405;28;20067;-69
2023/11/29 04:19:02;;;;;;;2.63;0.55;;;;;;;-146.27;79.11;34073.19;5098737;28;20035;-69
2023/11/29 04:21:30;;;;;;;1.60;0.57;;;;;;;-146.27;78.49;34061.28;5098962;28;20033;-68
2023/11/29 04:23:56;;;;;;;5.07;1.00;;;;;;;-146.27;77.86;33997.78;5094192;28;20150;-69
2023/11/29 04:26:34;;;;;;;4.30;0.75;;;;;;;-146.27;78.91;34055.34;5093713;28;20107;-69
2023/11/29 04:29:02;;;;;;;8.98;0.65;;;;;;;-146.27;79.10;34059.31;5093327;28;20032;-69
2023/11/29 04:31:28;;;;;;;5.82;0.50;;;;;;;-146.27;79.18;34037.47;5092442;28;20472;-69
2023/11/29 04:33:54;;;;;;;5.15;0.63;;;;;;;-146.27;79.82;34073.19;5098546;28;20055;-69
2023/11/29 04:36:19;;;;;;;23.80;1.30;;;;;;;-146.27;80.33;34041.44;5102061;28;20054;-69
2023/11/29 04:38:46;;;;;;;6.10;0.60;;;;;;;-146.27;79.72;34029.53;5100451;28;20016;-68
2023/11/29 04:41:11;;;;;;;7.13;1.00;;;;;;;-146.27;79.93;34069.22;5103988;28;20028;-68
2023/11/29 04:43:37;;;;;;;7.65;0.73;;;;;;;-146.27;79.20;34009.69;5109118;28;20399;-70
2023/11/29 04:46:03;;;;;;;2.00;0.80;;;;;;;-146.27;78.57;34031.53;5097101;28;20471;-69
2023/11/29 04:48:29;;;;;;;3.38;0.43;;;;;;;-146.27;78.80;33995.78;5096867;28;20446;-69
2023/11/29 04:50:55;;;;;;;6.13;0.80;;;;;;;-146.27;78.63;33995.78;5106500;28;20035;-69
2023/11/29 04:53:20;;;;;;;4.25;0.57;;;;;;;-146.27;79.38;34027.56;5094568;28;20074;-70
2023/11/29 04:55:46;;;;;;;10.70;1.20;;;;;;;-146.27;80.11;33997.78;5099106;28;20024;-69
2023/11/29 04:58:12;;;;;;;7.95;1.05;;;;;;;-146.27;80.45;34031.53;5098005;28;20024;-68
2023/11/29 05:00:38;;;;;;;2.65;0.30;;;;;;;-146.27;80.98;34081.13;5094703;28;20024;-69
2023/11/29 05:03:03;;;;;;;2.88;0.30;;;;;;;-146.27;81.01;34081.13;5099474;28;20494;-68
2023/11/29 05:05:28;;;;;;;2.75;0.35;;;;;;;-146.27;80.43;34083.13;5096615;28;20122;-69
2023/11/29 05:07:54;;;;;;;5.47;0.28;;;;;;;-146.27;80.20;34099.00;5092796;28;20548;-68
2023/11/29 05:10:20;;;;;;;2.20;0.20;;;;;;;-146.27;79.61;34112.88;5099892;28;20383;-69
2023/11/29 05:12:46;;;;;;;0.32;0.13;;;;;;;-146.27;78.44;34110.91;5094376;28;20027;-69
2023/11/29 05:15:11;;;;;;;2.83;0.50;;;;;;;-146.27;78.81;34156.53;5100045;28;20024;-69
2023/11/29 05:17:37;;;;;;;3.00;0.32;;;;;;;-146.27;78.07;34102.97;5097702;28;20436;-68
2023/11/29 05:20:03;;;;;;;1.33;0.22;;;;;;;-146.27;77.53;34037.47;5094403;28;20050;-69
2023/11/29 05:22:28;;;;;;;3.47;0.60;;;;;;;-146.27;77.21;34017.63;5099033;28;20358;-68
2023/11/29 05:24:53;;;;;;;5.70;0.40;;;;;;;-146.27;78.25;33991.81;5096934;28;20028;-68
2023/11/29 05:27:19;;;;;;;4.28;0.43;;;;;;;-146.27;79.81;34089.06;5099083;28;20016;-69
2023/11/29 05:29:44;;;;;;;9.75;0.65;;;;;;;-146.27;80.23;34059.31;5100373;28;20024;-69
2023/11/29 05:32:09;;;;;;;1.98;0.50;;;;;;;-146.27;80.66;34071.22;5095055;28;20119;-68
2023/11/29 05:34:35;;;;;;;10.52;1.42;;;;;;;-146.27;80.98;34110.91;5091827;28;20458;-69
2023/11/29 05:37:00;;;;;;;4.82;0.73;;;;;;;-146.27;80.94;34081.13;5098397;28;20031;-70
2023/11/29 05:39:26;;;;;;;7.05;0.55;;;;;;;-146.27;80.97;34011.66;5095312;28;20107;-68
2023/11/29 05:41:51;;;;;;;5.13;0.57;;;;;;;-146.27;81.12;33997.78;5093947;28;20028;-70
2023/11/29 05:44:17;;;;;;;4.20;0.60;;;;;;;-146.27;81.17;34033.50;5090332;28;20031;-69
2023/11/29 05:46:43;;;;;;;5.80;1.02;;;;;;;-146.27;81.51;34100.97;5084579;28;20505;-69
2023/11/29 05:49:08;;;;;;;6.65;0.90;;;;;;;-146.27;80.67;34029.53;5095318;28;20381;-69
2023/11/29 05:51:35;;;;;;;4.50;0.32;;;;;;;-146.27;80.07;33997.78;5102747;28;20023;-69
2023/11/29 05:54:00;;;;;;;3.28;0.80;;;;;;;-146.27;79.58;33906.50;5097687;28;20102;-68
2023/11/29 05:56:30;;;;;;;7.80;0.70;;;;;;;-146.27;79.36;33958.09;5095938;28;20532;-70
2023/11/29 05:58:55;;;;;;;8.18;0.80;;;;;;;-146.27;79.21;34001.75;5080846;28;20019;-70
2023/11/29 06:01:21;;;;;;;5.97;0.95;;;;;;;-146.27;79.39;33979.91;5095287;28;20032;-70
2023/11/29 06:03:46;;;;;;;3.47;0.70;;;;;;;-146.27;79.31;33962.06;5093800;28;20023;-69
2023/11/29 06:06:13;;;;;;;6.25;0.70;;;;;;;-146.27;78.85;33985.88;5079874;28;20123;-69
2023/11/29 06:08:40;;;;;;;6.47;0.70;;;;;;;-146.27;78.85;33966.03;5095672;28;20032;-70
2023/11/29 06:11:07;;;;;;;7.43;0.85;;;;;;;-146.27;78.52;33975.94;5094437;28;20085;-70
2023/11/29 06:13:36;;;;;;;5.97;0.60;;;;;;;-146.27;78.38;34005.72;5096823;28;20034;-69
2023/11/29 06:16:01;;;;;;;4.90;0.90;;;;;;;-146.27;78.39;33940.22;5098785;28;20065;-70
2023/11/29 06:18:28;;;;;;;7.35;1.10;;;;;;;-146.27;77.99;33977.94;5100176;28;20027;-69
2023/11/29 06:20:53;;;;;;;2.63;1.00;;;;;;;-146.27;77.75;33993.81;5099831;28;20020;-69
2023/11/29 06:23:19;;;;;;;3.33;0.80;;;;;;;-146.27;77.32;33975.94;5093445;28;20453;-69
2023/11/29 06:25:44;;;;;;;2.20;1.25;;;;;;;-146.27;77.06;33983.88;5112357;28;20040;-69
2023/11/29 06:28:09;;;;;;;2.97;0.80;;;;;;;-146.27;77.67;33983.88;5110982;28;20027;-67
2023/11/29 06:30:35;;;;;;;12.20;1.27;;;;;;;-146.27;78.88;34025.56;5079487;28;20031;-69
2023/11/29 06:33:00;;;;;;;4.90;0.82;;;;;;;-146.27;78.68;34007.69;5092522;28;20035;-69
2023/11/29 06:35:26;;;;;;;7.43;1.00;;;;;;;-146.27;79.67;34069.22;5091122;28;20030;-69
2023/11/29 06:37:51;;;;;;;4.43;0.77;;;;;;;-146.27;79.55;34104.94;5098961;28;20024;-68
2023/11/29 06:40:16;;;;;;;1.90;0.50;;;;;;;-146.27;79.51;34091.06;5091192;28;20551;-70
2023/11/29 06:42:47;;;;;;;3.72;0.80;;;;;;;-146.27;79.43;34124.78;5077310;28;20523;-71
2023/11/29 06:45:13;;;;;;;2.00;0.57;;;;;;;-146.27;80.16;34112.88;5092656;28;20028;-68
2023/11/29 06:47:38;;;;;;;3.72;0.50;;;;;;;-146.27;80.53;34144.63;5102803;28;20016;-68
2023/11/29 06:50:05;;;;;;;2.78;0.65;;;;;;;-146.27;80.51;34124.78;5094426;28;20024;-68
2023/11/29 06:52:32;;;;;;;2.47;0.47;;;;;;;-146.27;80.56;34160.50;5094392;28;20028;-68
2023/11/29 06:54:59;;;;;;;1.50;0.50;;;;;;;-146.27;81.07;34192.25;5102473;28;20388;-68
2023/11/29 06:57:24;;;;;;;1.63;0.45;;;;;;;-146.27;80.93;34212.09;5090546;28;20028;-69
2023/11/29 06:59:49;;;;;;;7.07;0.70;;;;;;;-146.27;81.60;34198.22;5090823;28;20073;-68
2023/11/29 07:02:15;;;;;;;3.40;0.73;;;;;;;-146.27;81.40;34235.94;5092597;28;21970;-69
2023/11/29 07:04:44;;;;;;;7.90;0.68;;;;;;;-146.27;82.12;34216.09;5088710;28;20027;-69
2023/11/29 07:07:10;;;;;;;2.42;0.65;;;;;;;-146.27;82.20;34263.72;5097531;28;20034;-69
2023/11/29 07:09:35;;;;;;;0.73;0.40;;;;;;;-146.27;81.98;34226.00;5103585;28;20024;-68
2023/11/29 07:12:01;;;;;;;2.55;0.47;;;;;;;-146.27;82.41;34283.56;5092083;28;20066;-68
2023/11/29 07:14:27;;;;;;;1.33;0.45;;;;;;;-146.27;82.71;34239.91;5106908;28;20394;-67
2023/11/29 07:16:52;;;;;;;5.43;0.70;;;;;;;-146.27;82.91;34277.59;5100680;28;20023;-68
2023/11/29 07:19:18;;;;;;;3.75;1.02;;;;;;;-146.27;83.09;34263.72;5107600;28;20460;-67
2023/11/29 07:21:44;;;;;;;1.38;0.88;;;;;;;-146.27;83.46;34263.72;5092654;28;20032;-68
2023/11/29 07:24:09;;;;;;;2.50;1.00;;;;;;;-146.27;83.89;34251.81;5110498;28;20169;-69
2023/11/29 07:26:34;;;;;;;3.28;1.02;;;;;;;-146.27;84.67;34235.94;5108637;28;20157;-67
2023/11/29 07:29:00;;;;;;;1.98;1.02;;;;;;;-146.27;84.50;34235.94;5109689;28;20023;-68
2023/11/29 07:31:25;;;;;;;1.63;0.98;;;;;;;-146.27;84.23;34251.81;5110160;28;20556;-68
2023/11/29 07:33:51;;;;;;;2.25;0.90;;;;;;;-146.27;84.58;34216.09;5091226;28;20441;-67
2023/11/29 07:36:17;;;;;;;4.97;1.00;;;;;;;-146.27;84.61;34222.03;5093452;28;20036;-69
2023/11/29 07:38:42;;;;;;;2.53;0.90;;;;;;;-146.27;84.73;34216.09;5089911;28;20479;-68
2023/11/29 07:41:09;;;;;;;1.52;0.90;;;;;;;-146.27;84.57;34204.16;5095276;28;20364;-68
2023/11/29 07:43:34;;;;;;;3.47;1.05;;;;;;;-146.27;84.43;34190.28;5071168;28;20046;-68
2023/11/29 07:46:00;;;;;;;4.40;1.00;;;;;;;-146.27;84.60;34204.16;5094170;28;20035;-68
2023/11/29 07:48:26;;;;;;;0.73;0.68;;;;;;;-146.27;84.31;34206.16;5097695;28;20028;-69
2023/11/29 07:50:53;;;;;;;1.33;0.70;;;;;;;-146.27;84.73;34247.84;5095765;28;20247;-68
2023/11/29 07:53:18;;;;;;;4.55;1.00;;;;;;;-146.27;84.99;34184.31;5099043;28;20383;-68
2023/11/29 07:55:44;;;;;;;4.90;1.13;;;;;;;-146.27;84.96;34168.44;5100052;28;20020;-69
2023/11/29 07:58:09;;;;;;;3.65;1.02;;;;;;;-146.27;85.14;34192.25;5097774;28;20095;-69
2023/11/29 08:00:35;;;;;;;4.60;1.23;;;;;;;-146.27;84.95;34192.25;5101602;28;20535;-68
2023/11/29 08:03:00;;;;;;;10.60;1.42;;;;;;;-146.27;84.94;34166.47;5093655;28;20093;-68
2023/11/29 08:05:27;;;;;;;6.97;0.98;;;;;;;-146.27;84.78;34140.66;5094577;28;20028;-68
2023/11/29 08:07:56;;;;;;;13.98;1.83;;;;;;;-146.27;84.55;34218.06;5098884;28;20115;-68
2023/11/29 08:10:22;;;;;;;16.58;1.50;;;;;;;-146.27;84.64;34172.41;5075578;28;20131;-68
2023/11/29 08:12:47;;;;;;;8.68;1.55;;;;;;;-146.27;84.31;34156.53;5103647;28;20463;-69
2023/11/29 08:15:13;;;;;;;7.03;1.33;;;;;;;-146.27;84.69;34176.38;5102163;28;20050;-69
2023/11/29 08:17:39;;;;;;;7.70;1.48;;;;;;;-146.27;85.00;34148.59;5083552;28;20548;-69
2023/11/29 08:20:07;;;;;;;5.00;1.73;;;;;;;-146.27;84.70;34116.84;5099057;28;20058;-68
2023/11/29 08:22:33;;;;;;;5.22;1.63;;;;;;;-146.27;84.13;34069.22;5103974;28;20549;-68
2023/11/29 08:24:59;;;;;;;8.40;1.02;;;;;;;-146.27;83.92;34089.06;5094642;28;20020;-68
2023/11/29 08:27:24;;;;;;;5.70;1.48;;;;;;;-146.27;83.35;34108.91;5098908;28;20031;-69
2023/11/29 08:29:51;;;;;;;6.15;1.65;;;;;;;-146.27;83.28;34081.13;5098088;28;20023;-69
2023/11/29 08:32:16;;;;;;;5.82;1.23;;;;;;;-146.27;83.33;34104.94;5105756;28;20039;-69
2023/11/29 08:34:42;;;;;;;7.20;1.17;;;;;;;-146.27;83.71;34200.19;5105534;28;20027;-69
2023/11/29 08:37:08;;;;;;;5.15;1.10;;;;;;;-146.27;83.58;34144.63;5079376;28;20323;-69
2023/11/29 08:39:34;;;;;;;4.30;0.95;;;;;;;-146.27;83.30;34063.28;5097404;28;20036;-69
2023/11/29 08:41:59;;;;;;;9.30;1.15;;;;;;;-146.27;83.40;34136.69;5098333;28;20024;-68
2023/11/29 08:44:25;;;;;;;2.78;1.17;;;;;;;-146.27;83.07;34150.59;5094800;28;20556;-69
2023/11/29 08:46:50;;;;;;;6.60;1.30;;;;;;;-146.27;83.30;34148.59;5103743;28;20064;-69
2023/11/29 08:49:15;;;;;;;4.15;1.10;;;;;;;-146.27;83.53;34160.50;5092470;28;20436;-68
2023/11/29 08:51:44;;;;;;;3.50;1.02;;;;;;;-146.27;83.28;34180.34;5092412;28;20059;-69
2023/11/29 08:54:10;;;;;;;1.95;1.20;;;;;;;-146.27;83.83;34182.34;5092401;28;20051;-69
2023/11/29 08:56:36;;;;;;;7.63;1.25;;;;;;;-146.27;84.37;34178.38;5090489;28;20500;-69
2023/11/29 08:59:04;;;;;;;11.80;1.50;;;;;;;-146.27;84.58;34192.25;5099907;28;20022;-69
2023/11/29 09:01:37;;;;;;;7.47;1.58;;;;;;;-146.27;84.23;34176.38;5117623;27;20035;-70
2023/11/29 09:04:02;;;;;;;2.53;1.15;;;;;;;-146.27;84.55;34184.31;5132926;27;20475;-69
2023/11/29 09:06:30;;;;;;;7.35;1.23;;;;;;;-146.27;84.51;34160.50;5133073;27;20034;-69
2023/11/29 09:08:55;;;;;;;5.40;1.33;;;;;;;-146.27;84.69;34112.88;5113337;27;20383;-69
2023/11/29 09:11:21;;;;;;;5.43;1.40;;;;;;;-146.27;85.16;34097.00;5095743;28;20101;-68
2023/11/29 09:13:48;;;;;;;5.93;1.30;;;;;;;-146.27;85.10;34065.25;5109674;27;20391;-68
2023/11/29 09:16:17;;;;;;;6.25;1.23;;;;;;;-146.27;85.03;34027.56;5101675;28;20043;-69
2023/11/29 09:18:43;;;;;;;4.57;1.20;;;;;;;-146.27;84.99;33997.78;5102328;28;20047;-69
2023/11/29 09:21:09;;;;;;;11.40;1.40;;;;;;;-146.27;84.69;34005.72;5100483;28;20035;-69
2023/11/29 09:23:35;;;;;;;3.88;1.30;;;;;;;-146.27;84.13;33989.84;5093527;28;20028;-68
2023/11/29 09:26:01;;;;;;;4.45;1.17;;;;;;;-146.27;83.78;34017.63;5105582;28;20027;-69
2023/11/29 09:28:28;;;;;;;3.88;0.77;;;;;;;-146.27;83.34;34005.72;5093948;28;20028;-68
2023/11/29 09:30:53;;;;;;;4.18;1.25;;;;;;;-146.27;83.55;34059.31;5105210;28;20024;-69
2023/11/29 09:33:21;;;;;;;3.78;1.23;;;;;;;-146.27;83.40;34043.44;5108034;28;20340;-68
2023/11/29 09:35:46;;;;;;;4.00;1.50;;;;;;;-146.27;83.69;34045.41;5096990;28;20031;-70
2023/11/29 09:38:12;;;;;;;6.82;1.10;;;;;;;-146.27;83.52;34037.47;5088137;28;20020;-69
2023/11/29 09:40:38;;;;;;;2.40;0.77;;;;;;;-146.27;83.85;34061.28;5105520;28;20085;-70
2023/11/29 09:43:03;;;;;;;2.13;1.00;;;;;;;-146.27;84.01;34063.28;5097329;28;20061;-69
2023/11/29 09:45:29;;;;;;;3.92;1.20;;;;;;;-146.27;83.75;33958.09;5111184;28;20085;-69
2023/11/29 09:47:56;;;;;;;2.30;1.25;;;;;;;-146.27;83.75;34027.56;5111879;28;20027;-69
2023/11/29 09:50:22;;;;;;;5.63;1.20;;;;;;;-146.27;84.36;33997.78;5086239;28;20035;-69
2023/11/29 09:52:48;;;;;;;2.45;1.27;;;;;;;-146.27;84.35;33977.94;5111456;28;20487;-70
2023/11/29 09:55:14;;;;;;;5.72;1.30;;;;;;;-146.27;84.83;33960.06;5110929;28;20037;-68
2023/11/29 09:57:40;;;;;;;4.15;0.90;;;;;;;-146.27;82.13;33934.28;5075987;28;20028;-69
2023/11/29 10:00:12;;;;;;;1.88;0.90;;;;;;;-146.27;81.41;33829.09;5092802;28;20065;-68
2023/11/29 10:02:40;;;;;;;3.80;1.00;;;;;;;-146.27;81.38;33835.06;5102981;28;20032;-68
2023/11/29 10:05:06;;;;;;;3.65;1.73;;;;;;;-146.27;80.11;33799.34;5111656;28;20422;-69
2023/11/29 10:07:32;;;;;;;4.18;1.25;;;;;;;-146.27;78.50;33807.28;5111480;28;20107;-68
2023/11/29 10:10:10;;;;;;;5.10;0.90;;;;;;;-146.27;77.98;33850.94;5110881;28;20028;-69
2023/11/29 10:12:40;;;;;;;1.40;0.90;;;;;;;-146.27;77.92;33872.75;5109498;28;20027;-69
2023/11/29 10:15:08;;;;;;;5.90;1.15;;;;;;;-146.27;78.34;33910.47;5090724;28;20024;-69
2023/11/29 10:17:33;;;;;;;3.88;0.90;;;;;;;-146.27;79.77;33926.34;5090313;28;20066;-69
2023/11/29 10:19:59;;;;;;;3.67;0.98;;;;;;;-146.27;80.78;33970.00;5090119;28;20408;-68
2023/11/29 10:22:24;;;;;;;4.75;1.15;;;;;;;-146.27;80.56;33954.13;5090965;28;20515;-68
2023/11/29 10:24:49;;;;;;;6.40;1.02;;;;;;;-146.27;80.51;33981.91;5090537;28;20028;-69
2023/11/29 10:27:18;;;;;;;1.63;0.98;;;;;;;-146.27;80.50;33989.84;5090680;28;20419;-67
2023/11/29 10:29:44;;;;;;;4.20;0.90;;;;;;;-146.27;81.17;33997.78;5090607;28;20480;-67
2023/11/29 10:32:11;;;;;;;4.13;1.08;;;;;;;-146.27;81.78;33948.16;5090848;28;20034;-67
2023/11/29 10:34:37;;;;;;;6.50;1.30;;;;;;;-146.27;81.98;33874.75;5090398;28;20035;-68
2023/11/29 10:37:03;;;;;;;5.32;1.17;;;;;;;-146.27;80.89;33717.97;5090634;28;20031;-68
2023/11/29 10:39:31;;;;;;;3.50;1.08;;;;;;;-146.27;81.21;33602.91;5090405;28;20103;-69
2023/11/29 10:41:58;;;;;;;3.90;0.77;;;;;;;-146.27;79.22;33406.47;5090087;28;20028;-69
2023/11/29 10:44:34;;;;;;;4.22;1.35;;;;;;;-146.27;77.26;33450.09;5090131;28;20024;-69
2023/11/29 10:47:13;;;;;;;2.17;0.75;;;;;;;-146.27;74.22;33509.63;5090259;28;20032;-69
2023/11/29 10:49:48;;;;;;;2.50;0.50;;;;;;;-146.27;73.73;33301.28;5090340;28;20105;-69
2023/11/29 10:52:17;;;;;;;1.02;0.60;;;;;;;-146.27;69.76;33146.53;5090408;28;20030;-68
2023/11/29 10:54:45;;;;;;;2.67;0.80;;;;;;;-146.27;68.19;32934.25;5089746;28;20027;-69
2023/11/29 10:57:14;;;;;;;1.15;0.80;;;;;;;-146.27;64.45;32950.13;5089922;28;20032;-68
2023/11/29 10:59:46;;;;;;;2.67;0.70;;;;;;;-146.27;64.03;32876.72;5090088;28;20028;-68
2023/11/29 11:02:11;;;;;;;1.73;0.45;;;;;;;-146.27;62.32;32702.13;5090334;28;20023;-68
2023/11/29 11:04:44;;;;;;;4.32;0.73;;;;;;;-146.27;61.68;32739.84;5090035;28;20106;-68
2023/11/29 11:07:40;;;;;;;1.45;0.88;;;;;;;-146.27;58.72;32920.38;5090000;28;20115;-68
2023/11/29 11:10:09;;;;;;;4.28;0.80;;;;;;;-146.27;62.13;33215.97;5090029;28;20032;-69
2023/11/29 11:12:35;;;;;;;4.97;0.57;;;;;;;-146.27;61.85;33348.91;5089491;28;20563;-69